Aeroporto :
LOGIN :

Iscrizione | Disclaimer

   EN    FR    IT 

 










Sommario :    VFR   VFR Marginale   IFR   IFR Intensivo   IFR Molto Intensivo
Visibilità : 
Base nubi : 
>= 8 km
>= 3000ft
5 / 8 km
1000 / 3000 ft
1500m / 5 km
500 / 1000 ft
800 / 1500m
200 / 500 ft
< 800m
< 200 ft
Simboli :   Temporali  Nebbia  Neve Forte  Precipitazioni Forti  Vento > 20 kt
SIGMETs :   Varie  Temporali  Ghiacco  Turbolenza  Onda orograficha  Ceneri Vulcaniche







- Altitudine del aeroporto : 286 ft
- Codice IATA : FFD


EGVA - RAF Fairford

ULTIMO METAR :
  • 212211Z AUTO 04005KT M M SCT033 03/01 A3028 RMK AO2 SLP261 RVRNO $

METARs OBSOLETI :
  • 212156Z AUTO 04005KT M M BKN032 04/02 A3029 RMK AO2 SLP264 T00360018 RVRNO $
  • 212056Z AUTO 04006KT M M OVC027 04/03 A3030 RMK AO2 OVC V BKN CIG 026 RWY09 SLP268 60001 T00430025 51003 RVRNO $
  • 212041Z AUTO 02003KT M M BKN027 OVC055 04/03 A3029 RMK AO2 CIG 027V050 BKN V FEW SLP265 RVRNO $
  • 212006Z AUTO 04004KT M M OVC050 04/03 A3029 RMK AO2 SLP265 RVRNO $
  • 211956Z AUTO 04004KT M M OVC048 04/03 A3029 RMK AO2 SLP265 T00430028 RVRNO $
  • 211946Z AUTO 04004KT M M OVC050 04/03 A3029 RMK AO2 SLP265 RVRNO $

Previsioni scadute.
Nessun NOTAM noto per questo aeroporto.



MetMap, La meteo Aeronautica in un colpo d'occhio ! - Copyright ORBIFLY Dicembre 2007 - Disclaimer

ORBIFLY MET'MAP TEAM :

Programmazione e sviluppo : Alexandra Zaïnal
Concezione e sviluppo : Baudouin d'Aumeries
Co-Programmazione e sviluppo : Marc-Olivier Méhu
Supporto tecnico e logistico : Manuel Goepfert
Aiuto per la traduzione : Arnaldo La Scala

Contatto : metmap@orbifly.com




FONTI E CREDITI :

   NOAA